الصفحة الرئيسية
METAR-TAF:

METAR-TAF

مطار :

Andersen, غوام, الولايات المتحدة

دائرة عرض: 13-35N, خط طول: 144-56E, ارتفاع: 187 متر

مراقبة الطقس الحالي

تاريخ ووقت الإصدار 50 دقيقة قبل الساعة 23:56UTC
ريح 10 عقدة من الشرق/الجنوب الشرقي
درجة الحرارة 28°درجة مئوية
الرطوبة 74%
ضغط 1015 hPa
الرؤية: 16.1 كم
غيوم متفرقة على ارتفاع 1300 قدم
غيوم مفككة على ارتفاع 2100 قدم

METAR: PGUA 282356Z 12010KT 10SM SCT013 BKN021 28/23 A2996 RMK AO2A SLP136 T02790232 10285 20250 51010 TSNO $

زمن: 10:46 (00:46 UTC)

توقعات

تاريخ ووقت الإصدار 4ساعات و 11 دقيقة قبل الساعة 20:35UTC
التوقعات صالحة من28 الساعة 20 UTC إلى 29 الساعة 24 UTC
ريح 9 عقدة من الشرق
الرؤية 10 كم أو أكثر
غيوم متفرقة على ارتفاع 1500 قدم

TAF: PGUA 282035Z 2820/2924 10009KT 9999 SCT015 510042 QNH2985INS TX29/2912Z TN23/2916Z

أرصاد الطقس والتوقعات من أكثر من 4000 مطار (تقارير الطقس للمطار METAR والتنبؤ بالطقس بالمطارTAF).

المحطات المتاحة هي النقط الصفراء والحمراء على الخريطة.

حرك المؤشر فوق النقطة لمعرفة اسم المحطة.

ثم انقر لمعرفة أرصاد وتوقعات الطقس.

لتغيير الخارطة: اضغط على الأزرار الخضراء مع رمز الصليب الأسود للتكبير. على الزر الأخضر مع شرطة للتصغير، أو على الأسهم الخضراء للخرائط المجاورة.


METAR-TAF: